Latest Weather Observations for The Monument

IDQ60801

Issued at 11:52 pm EST Thursday 18 July 2024 (issued every 10 minutes, with the page automatically refreshed every 10 minutes)

About weather observations | Map of weather stations | Latest weather observations for QLD | Other Formats
Station Details ID: 037034 Name: THE MONUMENT AIRPORT Lat: -21.81 Lon: 139.93 Height: 288.4 m
Data from the previous 72 hours. | See also: Recent months at The Monument
Date/Time
EST
Temp
°C
App
Temp
°C
Dew
Point
°C
Rel
Hum
%
Delta-T
°C
Wind Press
QNH
hPa
Press
MSL
hPa
Rain since
9am
mm
Dir  Spd
km/h
Gust
km/h
Spd
kts
Gust
kts
18/11:30pm 5.5 3.4 -0.5 65 2.3 CALM 0 0 0 0 1023.4 1023.1 0.0
18/11:00pm 6.4 4.4 0.1 64 2.5 CALM 0 6 0 3 1023.4 1023.1 0.0
18/10:30pm 6.7 4.4 0.2 63 2.6 SSE 2 7 1 4 1023.4 1023.1 0.0
18/10:00pm 7.6 3.9 0.1 59 3.0 SSE 9 11 5 6 1023.6 1023.3 0.0
18/09:30pm 8.3 4.6 -0.2 55 3.4 S 9 9 5 5 1023.7 1023.4 0.0
18/09:00pm 9.0 5.7 -0.1 53 3.7 S 7 11 4 6 1023.5 1023.2 0.0
18/08:30pm 9.5 6.2 0.1 52 3.8 SSW 7 9 4 5 1023.0 1022.6 0.0
18/08:00pm 9.8 6.7 0.2 51 3.9 S 6 7 3 4 1022.6 1022.2 0.0
18/07:30pm 10.7 7.0 -0.1 47 4.4 SSE 9 9 5 5 1022.2 1021.8 0.0
18/07:00pm 12.0 8.3 0.1 44 5.0 SSE 9 11 5 6 1022.2 1021.8 0.0
18/06:30pm 13.5 9.4 -0.2 39 5.8 SSE 11 13 6 7 1022.1 1021.7 0.0
18/06:00pm 15.4 11.3 0.0 35 6.6 SSE 11 17 6 9 1022.0 1021.6 0.0
18/05:30pm 16.9 12.0 -0.3 31 7.5 SE 15 19 8 10 1021.5 1021.1 0.0
18/05:00pm 17.4 13.0 0.1 31 7.6 S 13 19 7 10 1021.5 1021.1 0.0
18/04:30pm 17.7 12.9 -0.1 30 7.8 SSE 15 24 8 13 1021.7 1021.3 0.0
18/04:00pm 18.0 13.3 1.1 32 7.6 S 15 26 8 14 1021.9 1021.5 0.0
18/03:30pm 18.1 12.6 0.3 30 7.9 SSE 19 28 10 15 1022.2 1021.8 0.0
18/03:00pm 17.8 12.6 0.0 30 7.8 SSE 17 26 9 14 1022.1 1021.7 0.0
18/02:30pm 17.7 12.5 0.4 31 7.7 SSE 17 28 9 15 1022.3 1021.9 0.0
18/02:00pm 16.7 11.5 0.4 33 7.1 SSE 17 26 9 14 1022.5 1022.1 0.0
18/01:30pm 16.9 11.3 -0.3 31 7.5 S 19 28 10 15 1022.9 1022.5 0.0
18/01:00pm 16.6 10.8 -0.1 32 7.2 SSE 20 30 11 16 1023.4 1023.1 0.0
18/12:30pm 16.8 11.1 0.5 33 7.2 SE 20 32 11 17 1024.0 1023.6 0.0
18/12:00pm 15.9 10.2 0.5 35 6.7 SSE 20 30 11 16 1024.6 1024.2 0.0
18/11:30am 15.1 9.6 0.9 38 6.2 SSE 19 28 10 15 1025.0 1024.6 0.0
18/11:00am 14.7 8.7 0.9 39 6.0 SSE 22 32 12 17 1025.4 1025.0 0.0
18/10:30am 14.2 8.2 1.2 41 5.7 SSE 22 35 12 19 1025.8 1025.4 0.0
18/10:00am 13.7 8.3 2.6 47 5.0 SSE 20 32 11 17 1025.7 1025.3 0.0
18/09:30am 12.7 7.9 2.6 50 4.5 SSE 17 22 9 12 1025.5 1025.1 0.0
18/09:00am 10.3 7.4 2.4 58 3.4 S 7 11 4 6 1025.0 1024.6 0.0
18/08:30am 7.6 5.9 1.9 67 2.4 CALM 0 0 0 0 1024.8 1024.4 0.0
18/08:00am 4.2 2.3 0.7 78 1.4 CALM 0 0 0 0 1024.4 1024.0 0.0
18/07:30am 1.5 -0.5 -0.4 87 0.7 CALM 0 0 0 0 1024.1 1023.7 0.0
18/07:00am 1.7 -0.4 -1.0 82 1.0 CALM 0 0 0 0 1023.8 1023.5 0.0
18/06:30am 2.8 0.8 -0.3 80 1.2 CALM 0 0 0 0 1023.7 1023.4 0.0
18/06:00am 2.1 0.0 -0.6 82 1.0 CALM 0 0 0 0 1023.5 1023.2 0.0
18/05:30am 2.5 -0.3 -0.4 81 1.1 SW 4 6 2 3 1023.4 1023.1 0.0
18/05:00am 1.9 -1.4 -1.0 81 1.0 SSW 6 6 3 3 1023.0 1022.6 0.0
18/04:30am 2.5 -0.4 -0.9 78 1.3 WNW 4 6 2 3 1022.9 1022.5 0.0
18/04:00am 2.4 0.3 -0.9 79 1.2 CALM 0 0 0 0 1023.0 1022.6 0.0
18/03:30am 2.8 -0.4 -0.8 77 1.3 SSW 6 7 3 4 1023.0 1022.6 0.0
18/03:00am 3.3 1.2 -0.9 74 1.6 CALM 0 0 0 0 1023.0 1022.6 0.0
18/02:30am 4.0 2.0 -0.4 73 1.7 CALM 0 0 0 0 1023.1 1022.7 0.0
18/02:00am 4.3 2.3 -0.1 73 1.7 CALM 0 0 0 0 1023.4 1023.1 0.0
18/01:30am 4.8 2.8 -0.4 69 2.0 CALM 0 0 0 0 1023.6 1023.3 0.0
18/01:00am 4.2 2.1 -0.6 71 1.8 CALM 0 0 0 0 1023.5 1023.2 0.0
18/12:30am 4.4 1.2 -0.8 69 2.0 SW 6 7 3 4 1023.7 1023.4 0.0
18/12:00am 4.8 2.3 -1.0 66 2.2 SSW 2 6 1 3 1023.8 1023.5 0.0
 
Date/Time
EST
Temp
°C
App
Temp
°C
Dew
Point
°C
Rel
Hum
%
Delta-T
°C
Wind Press
QNH
hPa
Press
MSL
hPa
Rain since
9am
mm
Dir  Spd
km/h
Gust
km/h
Spd
kts
Gust
kts
17/11:30pm 6.6 2.8 -0.6 60 2.8 SW 9 11 5 6 1023.7 1023.4 0.0
17/11:00pm 7.3 3.5 -0.6 57 3.1 SW 9 11 5 6 1024.0 1023.6 0.0
17/10:30pm 7.9 4.1 -0.6 55 3.4 SW 9 11 5 6 1024.4 1024.0 0.0
17/10:00pm 8.1 4.3 -0.4 55 3.4 SW 9 11 5 6 1024.3 1023.9 0.0
17/09:30pm 8.0 3.8 -0.7 54 3.4 SW 11 11 6 6 1024.1 1023.7 0.0
17/09:00pm 8.4 4.6 -0.9 52 3.6 SW 9 11 5 6 1023.6 1023.3 0.0
17/08:30pm 8.7 4.9 -1.1 50 3.9 SW 9 11 5 6 1022.9 1022.5 0.0
17/08:00pm 9.5 5.6 -1.2 47 4.2 SSW 9 11 5 6 1022.3 1021.9 0.0
17/07:30pm 10.4 6.9 -1.0 45 4.6 S 7 11 4 6 1022.0 1021.6 0.0
17/07:00pm 11.5 6.9 -1.3 41 5.1 SSW 13 15 7 8 1021.6 1021.2 0.0
17/06:30pm 12.7 8.1 -1.2 38 5.7 SSW 13 20 7 11 1021.2 1020.8 0.0
17/06:00pm 14.2 9.6 -1.4 34 6.4 SSW 13 20 7 11 1021.0 1020.6 0.0
17/05:30pm 15.2 9.3 -0.9 33 6.8 SSW 20 30 11 16 1020.9 1020.5 0.0
17/05:00pm 15.8 9.5 -1.3 31 7.2 SSW 22 32 12 17 1020.7 1020.3 0.0
17/04:30pm 16.4 10.1 -1.2 30 7.5 SW 22 32 12 17 1020.6 1020.2 0.0
17/04:00pm 16.2 10.5 -0.5 32 7.1 SSW 19 30 10 16 1020.5 1020.1 0.0
17/03:30pm 16.4 11.1 -0.8 31 7.4 S 17 33 9 18 1020.2 1019.8 0.0
17/03:00pm 16.5 10.7 -0.2 32 7.2 SW 20 32 11 17 1020.5 1020.1 0.0
17/02:30pm 16.4 10.5 -0.8 31 7.4 SSW 20 30 11 16 1020.8 1020.4 0.0
17/02:00pm 15.6 9.7 -0.6 33 6.9 SSW 20 39 11 21 1021.2 1020.8 0.0
17/01:30pm 15.7 9.8 -0.5 33 6.9 S 20 35 11 19 1021.7 1021.3 0.0
17/01:00pm 15.0 9.2 0.1 36 6.4 SSW 20 35 11 19 1022.1 1021.7 0.0
17/12:30pm 14.7 8.2 0.5 38 6.1 S 24 39 13 21 1022.8 1022.4 0.0
17/12:00pm 14.5 8.4 0.7 39 6.0 SSW 22 35 12 19 1023.4 1023.1 0.0
17/11:30am 14.1 8.1 1.1 41 5.7 S 22 35 12 19 1024.1 1023.7 0.0
17/11:00am 13.3 7.4 1.9 46 5.0 S 22 33 12 18 1024.5 1024.1 0.0
17/10:30am 12.5 6.2 1.8 48 4.7 S 24 41 13 22 1024.6 1024.2 0.0
17/10:00am 12.0 5.4 1.9 50 4.4 SSE 26 35 14 19 1024.8 1024.4 0.0
17/09:30am 11.5 6.3 2.5 54 4.0 S 19 26 10 14 1024.7 1024.3 0.0
17/09:00am 9.9 6.3 3.2 63 2.9 S 11 19 6 10 1024.2 1023.8 0.0
17/08:30am 7.6 6.2 3.3 74 1.9 CALM 0 6 0 3 1023.5 1023.2 0.0
17/08:10am 6.9 5.5 3.7 80 1.4 CALM 0 0 0 0 1023.2 1022.8 0.0
17/08:00am 5.7 4.3 3.4 85 1.0 CALM 0 0 0 0 1023.0 1022.6 0.0
17/07:59am 5.6 4.2 3.3 85 1.0 CALM 0 0 0 0 1023.0 1022.6 0.0
17/07:30am 3.0 1.2 0.9 86 0.8 CALM 0 0 0 0 1022.6 1022.2 0.0
17/07:00am 4.1 2.4 1.6 84 1.0 CALM 0 0 0 0 1022.3 1021.9 0.0
17/06:30am 5.2 2.4 2.2 81 1.2 S 6 9 3 5 1022.1 1021.7 0.0
17/06:00am 5.7 2.8 2.4 79 1.4 SSW 7 9 4 5 1021.9 1021.5 0.0
17/05:30am 6.5 3.2 2.6 76 1.6 S 9 15 5 8 1021.3 1020.9 0.0
17/05:00am 7.0 3.4 2.7 74 1.8 S 11 15 6 8 1021.0 1020.6 0.0
17/04:30am 7.6 3.5 2.5 70 2.2 S 13 20 7 11 1020.9 1020.5 0.0
17/04:00am 7.7 3.9 2.0 67 2.4 S 11 19 6 10 1020.8 1020.4 0.0
17/03:30am 8.0 3.8 1.6 64 2.7 SSW 13 19 7 10 1020.6 1020.2 0.0
17/03:00am 8.4 4.2 1.6 62 2.8 SSW 13 17 7 9 1020.4 1020.0 0.0
17/02:30am 8.4 4.2 1.6 62 2.8 SSW 13 17 7 9 1020.5 1020.1 0.0
17/02:00am 7.7 4.2 1.5 65 2.6 SSW 9 15 5 8 1020.7 1020.3 0.0
17/01:30am 7.9 4.8 1.5 64 2.7 SSW 7 11 4 6 1020.9 1020.5 0.0
17/01:00am 8.9 5.1 1.8 61 3.0 SSW 11 13 6 7 1021.0 1020.6 0.0
17/12:30am 9.6 5.8 1.8 58 3.3 SSW 11 15 6 8 1021.2 1020.8 0.0
17/12:00am 10.2 5.7 2.1 57 3.5 SSW 15 19 8 10 1021.3 1020.9 0.0
 
Date/Time
EST
Temp
°C
App
Temp
°C
Dew
Point
°C
Rel
Hum
%
Delta-T
°C
Wind Press
QNH
hPa
Press
MSL
hPa
Rain since
9am
mm
Dir  Spd
km/h
Gust
km/h
Spd
kts
Gust
kts
16/11:30pm 10.4 6.3 2.0 56 3.6 SSW 13 19 7 10 1021.5 1021.1 0.0
16/11:00pm 10.5 6.3 1.9 55 3.7 SSW 13 19 7 10 1021.8 1021.4 0.0
16/10:30pm 10.5 6.3 1.9 55 3.7 SW 13 17 7 9 1021.9 1021.5 0.0
16/10:00pm 10.2 6.0 1.8 56 3.6 SW 13 17 7 9 1021.9 1021.5 0.0
16/09:30pm 10.1 6.2 1.2 54 3.7 SW 11 13 6 7 1021.8 1021.4 0.0
16/09:00pm 10.6 6.7 1.2 52 4.0 SSW 11 13 6 7 1021.6 1021.2 0.0
16/08:30pm 11.5 7.2 1.2 49 4.4 SSW 13 15 7 8 1021.4 1021.0 0.0
16/08:00pm 12.0 7.7 1.1 47 4.6 SSW 13 15 7 8 1020.9 1020.5 0.0
16/07:30pm 12.7 8.0 1.1 45 5.0 SSW 15 17 8 9 1020.6 1020.2 0.0
16/07:00pm 13.5 9.2 0.9 42 5.4 SSW 13 17 7 9 1020.1 1019.7 0.0
16/06:30pm 14.6 9.1 0.8 39 6.0 SSW 19 24 10 13 1019.7 1019.3 0.0
16/06:00pm 15.7 10.2 0.7 36 6.6 SSW 19 26 10 14 1019.5 1019.1 0.0
16/05:30pm 16.7 10.7 0.8 34 7.0 SSW 22 32 12 17 1019.2 1018.8 0.0
16/05:00pm 17.3 11.7 0.9 33 7.3 SSW 20 33 11 18 1018.9 1018.5 0.0
16/04:30pm 17.8 12.2 0.9 32 7.6 SSW 20 33 11 18 1018.7 1018.3 0.0
16/04:00pm 18.3 12.3 0.9 31 7.8 SSW 22 33 12 18 1018.8 1018.4 0.0
16/03:30pm 18.3 12.0 1.3 32 7.7 SSW 24 35 13 19 1018.7 1018.3 0.0
16/03:00pm 18.5 12.2 1.5 32 7.7 SSW 24 35 13 19 1018.6 1018.2 0.0
16/02:30pm 18.5 12.1 1.1 31 7.9 SW 24 41 13 22 1018.9 1018.5 0.0
16/02:00pm 19.2 13.9 2.1 32 7.9 SW 19 28 10 15 1019.1 1018.7 0.0
16/01:30pm 17.8 12.0 2.2 35 7.2 SW 22 35 12 19 1019.5 1019.1 0.0
16/01:00pm 18.2 11.7 2.5 35 7.3 SSW 26 35 14 19 1020.0 1019.6 0.0
16/12:30pm 17.7 12.4 3.2 38 6.8 SW 20 32 11 17 1020.7 1020.3 0.0
16/12:00pm 17.2 12.9 3.5 40 6.4 SSW 15 28 8 15 1021.2 1020.8 0.0
16/11:30am 17.4 13.7 4.7 43 6.1 SSE 13 24 7 13 1021.5 1021.1 0.0
16/11:00am 16.5 12.1 4.9 46 5.6 SSE 17 26 9 14 1021.6 1021.2 0.0
16/10:30am 16.3 12.1 5.6 49 5.2 S 17 24 9 13 1021.7 1021.3 0.0
16/10:00am 15.2 10.9 5.4 52 4.7 SSE 17 24 9 13 1021.7 1021.3 0.0
16/09:30am 13.9 10.3 5.0 55 4.2 S 13 20 7 11 1021.4 1021.0 0.0
16/09:00am 12.3 8.9 3.8 56 3.9 SSW 11 15 6 8 1021.1 1020.7 0.0
16/08:30am 9.6 8.3 4.0 68 2.5 CALM 0 0 0 0 1020.8 1020.4 0.0
16/08:00am 7.1 4.8 3.0 75 1.7 W 4 7 2 4 1020.2 1019.8 0.0
16/07:30am 4.9 1.9 1.9 81 1.2 WNW 7 7 4 4 1019.9 1019.5 0.0
16/07:00am 4.6 1.7 1.5 80 1.2 WNW 6 7 3 4 1019.7 1019.3 0.0
16/06:30am 4.9 1.9 1.9 81 1.2 NW 7 7 4 4 1019.4 1019.0 0.0
16/06:00am 4.2 1.3 1.6 83 1.0 NW 6 7 3 4 1019.1 1018.7 0.0
16/05:30am 4.3 1.3 1.7 83 1.0 WNW 7 9 4 5 1019.0 1018.6 0.0
16/05:00am 5.6 2.6 2.1 78 1.4 NW 7 9 4 5 1018.9 1018.5 0.0
16/04:30am 5.0 2.0 2.2 82 1.1 NW 7 7 4 4 1018.9 1018.5 0.0
16/04:00am 5.9 2.6 2.2 77 1.5 WNW 9 9 5 5 1019.1 1018.7 0.0
16/03:30am 5.6 2.6 2.1 78 1.4 NW 7 9 4 5 1018.9 1018.5 0.0
16/03:00am 5.6 2.6 2.3 79 1.4 NW 7 9 4 5 1018.8 1018.4 0.0
16/02:30am 7.1 3.8 2.2 71 2.1 W 9 9 5 5 1018.8 1018.4 0.0
16/02:00am 7.5 4.8 2.4 70 2.1 W 6 7 3 4 1018.8 1018.4 0.0
16/01:30am 6.5 4.9 2.2 74 1.8 CALM 0 0 0 0 1019.0 1018.6 0.0
16/01:00am 6.1 4.5 2.2 76 1.6 CALM 0 0 0 0 1018.9 1018.5 0.0
16/12:30am 6.5 4.9 2.2 74 1.8 CALM 0 0 0 0 1018.7 1018.3 0.0
16/12:00am 6.6 4.9 2.1 73 1.9 CALM 0 0 0 0 1019.0 1018.6 0.0

Other formats

Comma delimited format used in spreadsheet applications
http://www.bom.gov.au/fwo/IDQ60801/IDQ60801.94336.axf

JavaScript Object Notation format (JSON) in row-major order
http://www.bom.gov.au/fwo/IDQ60801/IDQ60801.94336.json

Data quality

Most of these data are generated automatically and are frequently updated. Quality checks on data are not normally performed. It is possible for incorrect values to appear. Refer to information at About Latest Weather Observations and please check the disclaimer before using these data.